sensor_id;sensor_type;location;lat;lon;timestamp;pressure;altitude;pressure_sealevel;temperature;humidity
37860;BME280;23698;52.014;5.190;2023-02-23T00:00:45;101147.63;;;11.33;100.00
37860;BME280;23698;52.014;5.190;2023-02-23T00:03:31;101145.59;;;12.36;100.00
37860;BME280;23698;52.014;5.190;2023-02-23T00:06:18;101151.38;;;11.68;100.00
37860;BME280;23698;52.014;5.190;2023-02-23T00:09:05;101155.44;;;11.79;100.00
37860;BME280;23698;52.014;5.190;2023-02-23T00:11:58;101152.66;;;12.31;100.00
37860;BME280;23698;52.014;5.190;2023-02-23T00:14:46;101150.47;;;13.39;100.00
37860;BME280;23698;52.014;5.190;2023-02-23T00:17:33;101151.25;;;12.13;100.00
37860;BME280;23698;52.014;5.190;2023-02-23T00:20:22;101146.59;;;12.28;100.00
37860;BME280;23698;52.014;5.190;2023-02-23T00:23:11;101143.25;;;12.55;100.00
37860;BME280;23698;52.014;5.190;2023-02-23T00:26:02;101140.28;;;13.68;100.00
37860;BME280;23698;52.014;5.190;2023-02-23T00:28:52;101139.59;;;13.04;100.00
37860;BME280;23698;52.014;5.190;2023-02-23T00:31:40;101135.22;;;13.10;100.00
37860;BME280;23698;52.014;5.190;2023-02-23T00:34:28;101143.53;;;13.01;100.00
37860;BME280;23698;52.014;5.190;2023-02-23T00:37:15;101147.53;;;12.42;100.00
37860;BME280;23698;52.014;5.190;2023-02-23T00:40:06;101147.00;;;10.48;100.00
37860;BME280;23698;52.014;5.190;2023-02-23T00:42:57;101145.94;;;10.11;100.00
37860;BME280;23698;52.014;5.190;2023-02-23T00:45:44;101148.47;;;10.36;100.00
37860;BME280;23698;52.014;5.190;2023-02-23T00:48:34;101146.84;;;10.27;100.00
37860;BME280;23698;52.014;5.190;2023-02-23T00:51:21;101141.31;;;11.47;100.00
37860;BME280;23698;52.014;5.190;2023-02-23T00:54:11;101122.88;;;12.72;100.00
37860;BME280;23698;52.014;5.190;2023-02-23T00:56:58;101132.63;;;13.98;100.00
37860;BME280;23698;52.014;5.190;2023-02-23T00:59:44;101135.56;;;14.16;100.00
37860;BME280;23698;52.014;5.190;2023-02-23T01:02:32;101150.66;;;14.32;100.00
37860;BME280;23698;52.014;5.190;2023-02-23T01:05:20;101159.72;;;14.33;100.00
37860;BME280;23698;52.014;5.190;2023-02-23T01:08:07;101162.41;;;14.13;100.00
37860;BME280;23698;52.014;5.190;2023-02-23T01:10:54;101171.25;;;14.42;100.00
37860;BME280;23698;52.014;5.190;2023-02-23T01:13:43;101173.97;;;14.35;100.00
37860;BME280;23698;52.014;5.190;2023-02-23T01:16:33;101181.31;;;14.88;100.00
37860;BME280;23698;52.014;5.190;2023-02-23T01:19:20;101186.38;;;14.91;100.00
37860;BME280;23698;52.014;5.190;2023-02-23T01:22:08;101188.03;;;14.99;100.00
37860;BME280;23698;52.014;5.190;2023-02-23T01:24:57;101183.84;;;14.83;100.00
37860;BME280;23698;52.014;5.190;2023-02-23T01:27:44;101190.34;;;15.02;100.00
37860;BME280;23698;52.014;5.190;2023-02-23T01:30:31;101198.63;;;15.47;100.00
37860;BME280;23698;52.014;5.190;2023-02-23T01:33:17;101208.31;;;15.36;100.00
37860;BME280;23698;52.014;5.190;2023-02-23T01:36:04;101199.75;;;14.26;100.00
37860;BME280;23698;52.014;5.190;2023-02-23T01:38:53;101181.16;;;13.26;100.00
37860;BME280;23698;52.014;5.190;2023-02-23T01:41:41;101180.75;;;13.71;100.00
37860;BME280;23698;52.014;5.190;2023-02-23T01:48:10;101190.38;;;13.60;100.00
37860;BME280;23698;52.014;5.190;2023-02-23T01:50:58;101190.09;;;13.48;100.00
37860;BME280;23698;52.014;5.190;2023-02-23T01:53:51;101187.88;;;13.30;100.00
37860;BME280;23698;52.014;5.190;2023-02-23T01:56:43;101185.16;;;13.30;100.00
37860;BME280;23698;52.014;5.190;2023-02-23T01:59:37;101189.09;;;13.63;100.00
37860;BME280;23698;52.014;5.190;2023-02-23T02:02:27;101192.72;;;12.72;100.00
37860;BME280;23698;52.014;5.190;2023-02-23T02:05:18;101196.94;;;12.74;100.00
37860;BME280;23698;52.014;5.190;2023-02-23T02:08:08;101197.28;;;12.64;100.00
37860;BME280;23698;52.014;5.190;2023-02-23T02:10:56;101191.94;;;13.06;100.00
37860;BME280;23698;52.014;5.190;2023-02-23T02:13:44;101200.34;;;13.46;100.00
37860;BME280;23698;52.014;5.190;2023-02-23T02:20:10;101191.13;;;12.77;100.00
37860;BME280;23698;52.014;5.190;2023-02-23T02:23:49;101187.13;;;12.30;100.00
37860;BME280;23698;52.014;5.190;2023-02-23T02:26:47;101189.38;;;13.33;100.00
37860;BME280;23698;52.014;5.190;2023-02-23T02:29:55;101197.34;;;13.34;100.00
37860;BME280;23698;52.014;5.190;2023-02-23T02:33:19;101201.16;;;13.40;100.00
37860;BME280;23698;52.014;5.190;2023-02-23T02:36:43;101199.91;;;13.43;100.00
37860;BME280;23698;52.014;5.190;2023-02-23T02:39:41;101201.53;;;13.02;100.00
37860;BME280;23698;52.014;5.190;2023-02-23T02:42:35;101197.66;;;13.18;100.00
37860;BME280;23698;52.014;5.190;2023-02-23T02:45:33;101204.28;;;13.85;100.00
37860;BME280;23698;52.014;5.190;2023-02-23T02:48:32;101198.19;;;13.83;100.00
37860;BME280;23698;52.014;5.190;2023-02-23T02:51:24;101213.16;;;15.93;100.00
37860;BME280;23698;52.014;5.190;2023-02-23T02:54:19;101224.03;;;17.39;100.00
37860;BME280;23698;52.014;5.190;2023-02-23T02:57:10;101213.03;;;13.74;100.00
37860;BME280;23698;52.014;5.190;2023-02-23T02:59:58;101207.50;;;14.22;100.00
37860;BME280;23698;52.014;5.190;2023-02-23T03:03:04;101203.72;;;14.10;100.00
37860;BME280;23698;52.014;5.190;2023-02-23T03:06:08;101209.66;;;13.65;100.00
37860;BME280;23698;52.014;5.190;2023-02-23T03:09:24;101212.94;;;13.54;100.00
37860;BME280;23698;52.014;5.190;2023-02-23T03:12:36;101209.63;;;14.33;100.00
37860;BME280;23698;52.014;5.190;2023-02-23T03:15:53;101212.59;;;14.99;100.00
37860;BME280;23698;52.014;5.190;2023-02-23T03:19:10;101210.69;;;12.94;100.00
37860;BME280;23698;52.014;5.190;2023-02-23T03:22:20;101206.44;;;12.85;100.00
37860;BME280;23698;52.014;5.190;2023-02-23T03:25:31;101211.22;;;13.39;100.00
37860;BME280;23698;52.014;5.190;2023-02-23T03:28:45;101216.50;;;14.09;100.00
37860;BME280;23698;52.014;5.190;2023-02-23T03:31:58;101210.53;;;13.72;100.00
37860;BME280;23698;52.014;5.190;2023-02-23T03:35:07;101203.19;;;13.31;100.00
37860;BME280;23698;52.014;5.190;2023-02-23T03:38:24;101208.44;;;13.74;100.00
37860;BME280;23698;52.014;5.190;2023-02-23T03:41:34;101211.31;;;12.90;100.00
37860;BME280;23698;52.014;5.190;2023-02-23T03:44:44;101211.41;;;13.38;100.00
37860;BME280;23698;52.014;5.190;2023-02-23T03:47:51;101213.78;;;13.48;100.00
37860;BME280;23698;52.014;5.190;2023-02-23T03:51:00;101219.03;;;14.11;100.00
37860;BME280;23698;52.014;5.190;2023-02-23T03:54:10;101228.25;;;14.10;100.00
37860;BME280;23698;52.014;5.190;2023-02-23T03:57:19;101235.66;;;13.33;100.00
37860;BME280;23698;52.014;5.190;2023-02-23T04:00:29;101237.34;;;13.69;100.00
37860;BME280;23698;52.014;5.190;2023-02-23T04:03:38;101227.81;;;13.51;100.00
37860;BME280;23698;52.014;5.190;2023-02-23T04:06:45;101235.56;;;14.03;100.00
37860;BME280;23698;52.014;5.190;2023-02-23T04:09:50;101231.22;;;9.61;100.00
37860;BME280;23698;52.014;5.190;2023-02-23T04:12:59;101209.34;;;12.12;100.00
37860;BME280;23698;52.014;5.190;2023-02-23T04:16:00;101218.72;;;12.53;100.00
37860;BME280;23698;52.014;5.190;2023-02-23T04:18:47;101207.78;;;9.76;100.00
37860;BME280;23698;52.014;5.190;2023-02-23T04:21:34;101219.03;;;9.65;100.00
37860;BME280;23698;52.014;5.190;2023-02-23T04:24:21;101206.03;;;11.80;100.00
37860;BME280;23698;52.014;5.190;2023-02-23T04:27:07;101203.31;;;12.60;100.00
37860;BME280;23698;52.014;5.190;2023-02-23T04:29:55;101208.28;;;12.56;100.00
37860;BME280;23698;52.014;5.190;2023-02-23T04:32:42;101210.22;;;12.13;100.00
37860;BME280;23698;52.014;5.190;2023-02-23T04:35:30;101213.53;;;11.93;100.00
37860;BME280;23698;52.014;5.190;2023-02-23T04:38:17;101213.22;;;12.68;100.00
37860;BME280;23698;52.014;5.190;2023-02-23T04:41:04;101214.50;;;13.00;100.00
37860;BME280;23698;52.014;5.190;2023-02-23T04:43:50;101226.75;;;13.17;100.00
37860;BME280;23698;52.014;5.190;2023-02-23T04:46:38;101219.56;;;13.38;100.00
37860;BME280;23698;52.014;5.190;2023-02-23T04:49:24;101227.53;;;13.39;100.00
37860;BME280;23698;52.014;5.190;2023-02-23T04:52:11;101236.06;;;13.71;100.00
37860;BME280;23698;52.014;5.190;2023-02-23T04:54:58;101239.97;;;13.55;100.00
37860;BME280;23698;52.014;5.190;2023-02-23T04:57:45;101244.81;;;13.53;100.00
37860;BME280;23698;52.014;5.190;2023-02-23T05:00:31;101245.09;;;13.02;100.00
37860;BME280;23698;52.014;5.190;2023-02-23T05:03:19;101243.00;;;10.31;100.00
37860;BME280;23698;52.014;5.190;2023-02-23T05:06:06;101230.09;;;9.47;100.00
37860;BME280;23698;52.014;5.190;2023-02-23T05:08:52;101235.28;;;9.65;100.00
37860;BME280;23698;52.014;5.190;2023-02-23T05:11:39;101229.81;;;9.73;100.00
37860;BME280;23698;52.014;5.190;2023-02-23T05:14:26;101216.53;;;9.55;100.00
37860;BME280;23698;52.014;5.190;2023-02-23T05:17:13;101213.66;;;9.49;100.00
37860;BME280;23698;52.014;5.190;2023-02-23T05:20:01;101214.38;;;9.82;100.00
37860;BME280;23698;52.014;5.190;2023-02-23T05:22:47;101207.94;;;9.83;100.00
37860;BME280;23698;52.014;5.190;2023-02-23T05:25:36;101212.84;;;9.79;100.00
37860;BME280;23698;52.014;5.190;2023-02-23T05:28:22;101212.84;;;9.79;100.00
37860;BME280;23698;52.014;5.190;2023-02-23T05:31:10;101213.19;;;9.76;100.00
37860;BME280;23698;52.014;5.190;2023-02-23T05:33:57;101204.09;;;9.69;100.00
37860;BME280;23698;52.014;5.190;2023-02-23T05:36:45;101213.16;;;9.53;100.00
37860;BME280;23698;52.014;5.190;2023-02-23T05:39:31;101208.09;;;9.50;100.00
37860;BME280;23698;52.014;5.190;2023-02-23T05:42:18;101214.00;;;9.54;100.00
37860;BME280;23698;52.014;5.190;2023-02-23T05:45:06;101208.47;;;9.47;100.00
37860;BME280;23698;52.014;5.190;2023-02-23T05:47:52;101215.16;;;9.59;100.00
37860;BME280;23698;52.014;5.190;2023-02-23T05:50:39;101203.25;;;9.77;100.00
37860;BME280;23698;52.014;5.190;2023-02-23T05:53:27;101208.59;;;9.85;100.00
37860;BME280;23698;52.014;5.190;2023-02-23T05:56:14;101209.97;;;9.81;100.00
37860;BME280;23698;52.014;5.190;2023-02-23T05:59:05;101203.00;;;9.87;100.00
37860;BME280;23698;52.014;5.190;2023-02-23T06:01:51;101208.50;;;9.70;100.00
37860;BME280;23698;52.014;5.190;2023-02-23T06:04:38;101210.88;;;9.73;100.00
37860;BME280;23698;52.014;5.190;2023-02-23T06:07:26;101208.63;;;10.08;100.00
37860;BME280;23698;52.014;5.190;2023-02-23T06:10:14;101211.75;;;10.20;100.00
37860;BME280;23698;52.014;5.190;2023-02-23T06:13:00;101213.75;;;10.03;100.00
37860;BME280;23698;52.014;5.190;2023-02-23T06:15:48;101218.22;;;10.19;100.00
37860;BME280;23698;52.014;5.190;2023-02-23T06:18:34;101220.47;;;10.07;100.00
37860;BME280;23698;52.014;5.190;2023-02-23T06:21:21;101223.50;;;10.12;100.00
37860;BME280;23698;52.014;5.190;2023-02-23T06:24:09;101219.69;;;10.21;100.00
37860;BME280;23698;52.014;5.190;2023-02-23T06:26:57;101223.44;;;10.20;100.00
37860;BME280;23698;52.014;5.190;2023-02-23T06:29:43;101225.00;;;10.15;100.00
37860;BME280;23698;52.014;5.190;2023-02-23T06:32:30;101227.88;;;10.13;100.00
37860;BME280;23698;52.014;5.190;2023-02-23T06:35:20;101229.09;;;10.11;100.00
37860;BME280;23698;52.014;5.190;2023-02-23T06:38:06;101236.13;;;9.57;100.00
37860;BME280;23698;52.014;5.190;2023-02-23T06:40:53;101239.56;;;10.14;100.00
37860;BME280;23698;52.014;5.190;2023-02-23T06:43:40;101235.94;;;9.67;100.00
37860;BME280;23698;52.014;5.190;2023-02-23T06:46:27;101242.03;;;10.24;100.00
37860;BME280;23698;52.014;5.190;2023-02-23T06:49:14;101229.53;;;10.46;100.00
37860;BME280;23698;52.014;5.190;2023-02-23T06:52:01;101242.31;;;10.06;100.00
37860;BME280;23698;52.014;5.190;2023-02-23T06:54:47;101234.69;;;10.09;100.00
37860;BME280;23698;52.014;5.190;2023-02-23T06:57:34;101239.16;;;10.48;100.00
37860;BME280;23698;52.014;5.190;2023-02-23T07:00:23;101242.06;;;9.92;100.00
37860;BME280;23698;52.014;5.190;2023-02-23T07:03:10;101251.53;;;9.57;100.00
37860;BME280;23698;52.014;5.190;2023-02-23T07:05:56;101252.78;;;9.38;100.00
37860;BME280;23698;52.014;5.190;2023-02-23T07:08:43;101263.28;;;9.33;100.00
37860;BME280;23698;52.014;5.190;2023-02-23T07:11:30;101264.44;;;9.47;100.00
37860;BME280;23698;52.014;5.190;2023-02-23T07:14:16;101261.00;;;10.24;100.00
37860;BME280;23698;52.014;5.190;2023-02-23T07:17:12;101263.53;;;10.33;100.00
37860;BME280;23698;52.014;5.190;2023-02-23T07:19:59;101266.34;;;10.40;100.00
37860;BME280;23698;52.014;5.190;2023-02-23T07:22:46;101273.00;;;10.29;100.00
37860;BME280;23698;52.014;5.190;2023-02-23T07:25:32;101281.84;;;10.23;100.00
37860;BME280;23698;52.014;5.190;2023-02-23T07:28:19;101283.88;;;10.75;100.00
37860;BME280;23698;52.014;5.190;2023-02-23T07:31:06;101292.47;;;10.79;100.00
37860;BME280;23698;52.014;5.190;2023-02-23T07:33:54;101291.06;;;10.68;100.00
37860;BME280;23698;52.014;5.190;2023-02-23T07:36:41;101295.63;;;10.68;100.00
37860;BME280;23698;52.014;5.190;2023-02-23T07:39:28;101305.31;;;10.31;100.00
37860;BME280;23698;52.014;5.190;2023-02-23T07:42:15;101311.78;;;10.38;100.00
37860;BME280;23698;52.014;5.190;2023-02-23T07:45:02;101315.56;;;10.75;100.00
37860;BME280;23698;52.014;5.190;2023-02-23T07:47:49;101316.31;;;11.07;100.00
37860;BME280;23698;52.014;5.190;2023-02-23T07:50:38;101317.78;;;10.48;100.00
37860;BME280;23698;52.014;5.190;2023-02-23T07:53:25;101317.38;;;10.83;100.00
37860;BME280;23698;52.014;5.190;2023-02-23T07:56:12;101314.50;;;10.61;100.00
37860;BME280;23698;52.014;5.190;2023-02-23T07:58:59;101321.97;;;10.28;100.00
37860;BME280;23698;52.014;5.190;2023-02-23T08:01:46;101329.81;;;10.14;100.00
37860;BME280;23698;52.014;5.190;2023-02-23T08:04:33;101337.72;;;10.24;100.00
37860;BME280;23698;52.014;5.190;2023-02-23T08:07:21;101332.84;;;10.51;100.00
37860;BME280;23698;52.014;5.190;2023-02-23T08:10:09;101334.38;;;10.76;100.00
37860;BME280;23698;52.014;5.190;2023-02-23T08:12:56;101338.22;;;10.82;100.00
37860;BME280;23698;52.014;5.190;2023-02-23T08:15:43;101337.25;;;10.52;100.00
37860;BME280;23698;52.014;5.190;2023-02-23T08:18:29;101344.09;;;11.09;100.00
37860;BME280;23698;52.014;5.190;2023-02-23T08:21:16;101340.03;;;11.28;100.00
37860;BME280;23698;52.014;5.190;2023-02-23T08:24:05;101344.06;;;11.32;100.00
37860;BME280;23698;52.014;5.190;2023-02-23T08:26:51;101346.16;;;11.07;100.00
37860;BME280;23698;52.014;5.190;2023-02-23T08:29:38;101362.59;;;10.28;100.00
37860;BME280;23698;52.014;5.190;2023-02-23T08:32:25;101361.34;;;10.47;100.00
37860;BME280;23698;52.014;5.190;2023-02-23T08:35:14;101362.28;;;10.23;100.00
37860;BME280;23698;52.014;5.190;2023-02-23T08:38:00;101372.09;;;10.32;100.00
37860;BME280;23698;52.014;5.190;2023-02-23T08:40:48;101366.25;;;10.12;100.00
37860;BME280;23698;52.014;5.190;2023-02-23T08:43:35;101365.28;;;10.36;100.00
37860;BME280;23698;52.014;5.190;2023-02-23T08:46:23;101359.13;;;10.50;100.00
37860;BME280;23698;52.014;5.190;2023-02-23T08:49:10;101358.19;;;10.89;100.00
37860;BME280;23698;52.014;5.190;2023-02-23T08:51:56;101358.34;;;10.65;100.00
37860;BME280;23698;52.014;5.190;2023-02-23T08:54:43;101364.44;;;10.67;100.00
37860;BME280;23698;52.014;5.190;2023-02-23T08:57:32;101376.13;;;10.67;100.00
37860;BME280;23698;52.014;5.190;2023-02-23T09:00:19;101379.44;;;10.77;100.00
37860;BME280;23698;52.014;5.190;2023-02-23T09:03:06;101373.72;;;10.95;100.00
37860;BME280;23698;52.014;5.190;2023-02-23T09:05:53;101381.16;;;10.47;100.00
37860;BME280;23698;52.014;5.190;2023-02-23T09:08:40;101385.63;;;10.24;100.00
37860;BME280;23698;52.014;5.190;2023-02-23T09:11:26;101384.81;;;10.63;100.00
37860;BME280;23698;52.014;5.190;2023-02-23T09:14:14;101390.56;;;10.60;100.00
37860;BME280;23698;52.014;5.190;2023-02-23T09:17:01;101400.84;;;10.41;100.00
37860;BME280;23698;52.014;5.190;2023-02-23T09:19:48;101398.59;;;10.76;100.00
37860;BME280;23698;52.014;5.190;2023-02-23T09:22:34;101391.13;;;10.78;100.00
37860;BME280;23698;52.014;5.190;2023-02-23T09:25:21;101400.59;;;10.59;100.00
37860;BME280;23698;52.014;5.190;2023-02-23T09:28:10;101395.34;;;11.04;100.00
37860;BME280;23698;52.014;5.190;2023-02-23T09:31:03;101394.13;;;11.67;100.00
37860;BME280;23698;52.014;5.190;2023-02-23T09:33:52;101400.56;;;11.51;100.00
37860;BME280;23698;52.014;5.190;2023-02-23T09:36:38;101407.41;;;11.77;100.00
37860;BME280;23698;52.014;5.190;2023-02-23T09:39:25;101408.50;;;12.06;100.00
37860;BME280;23698;52.014;5.190;2023-02-23T09:42:32;101407.94;;;11.96;100.00
37860;BME280;23698;52.014;5.190;2023-02-23T09:45:26;101409.78;;;11.80;100.00
37860;BME280;23698;52.014;5.190;2023-02-23T09:48:18;101420.19;;;13.09;100.00
37860;BME280;23698;52.014;5.190;2023-02-23T09:51:07;101428.84;;;12.98;100.00
37860;BME280;23698;52.014;5.190;2023-02-23T09:54:01;101422.03;;;13.09;100.00
37860;BME280;23698;52.014;5.190;2023-02-23T09:56:48;101423.53;;;13.83;100.00
37860;BME280;23698;52.014;5.190;2023-02-23T09:59:35;101437.09;;;14.04;100.00
37860;BME280;23698;52.014;5.190;2023-02-23T10:02:23;101437.22;;;13.96;100.00
37860;BME280;23698;52.014;5.190;2023-02-23T10:05:16;101435.81;;;14.00;100.00
37860;BME280;23698;52.014;5.190;2023-02-23T10:08:06;101440.53;;;13.56;100.00
37860;BME280;23698;52.014;5.190;2023-02-23T10:11:07;101437.47;;;14.01;100.00
37860;BME280;23698;52.014;5.190;2023-02-23T10:14:09;101445.06;;;14.41;100.00
37860;BME280;23698;52.014;5.190;2023-02-23T10:17:07;101458.03;;;14.73;100.00
37860;BME280;23698;52.014;5.190;2023-02-23T10:20:05;101473.28;;;15.49;100.00
37860;BME280;23698;52.014;5.190;2023-02-23T10:23:02;101488.69;;;15.77;100.00
37860;BME280;23698;52.014;5.190;2023-02-23T10:25:53;101485.03;;;15.23;100.00
37860;BME280;23698;52.014;5.190;2023-02-23T10:28:43;101488.75;;;15.02;100.00
37860;BME280;23698;52.014;5.190;2023-02-23T10:31:35;101492.88;;;16.20;100.00
37860;BME280;23698;52.014;5.190;2023-02-23T10:34:26;101498.81;;;14.95;100.00
37860;BME280;23698;52.014;5.190;2023-02-23T10:37:16;101507.00;;;15.83;100.00
37860;BME280;23698;52.014;5.190;2023-02-23T10:40:06;101511.81;;;16.08;100.00
37860;BME280;23698;52.014;5.190;2023-02-23T10:42:54;101513.28;;;15.84;100.00
37860;BME280;23698;52.014;5.190;2023-02-23T10:45:44;101509.66;;;16.30;100.00
37860;BME280;23698;52.014;5.190;2023-02-23T10:48:35;101510.34;;;15.85;100.00
37860;BME280;23698;52.014;5.190;2023-02-23T10:51:27;101511.94;;;16.47;100.00
37860;BME280;23698;52.014;5.190;2023-02-23T10:54:39;101527.50;;;17.18;100.00
37860;BME280;23698;52.014;5.190;2023-02-23T10:57:32;101524.56;;;16.48;100.00
37860;BME280;23698;52.014;5.190;2023-02-23T11:00:25;101528.78;;;16.43;100.00
37860;BME280;23698;52.014;5.190;2023-02-23T11:03:16;101531.06;;;17.18;100.00
37860;BME280;23698;52.014;5.190;2023-02-23T11:06:04;101539.09;;;16.48;100.00
37860;BME280;23698;52.014;5.190;2023-02-23T11:08:52;101542.31;;;16.05;100.00
37860;BME280;23698;52.014;5.190;2023-02-23T11:11:39;101540.41;;;17.43;100.00
37860;BME280;23698;52.014;5.190;2023-02-23T11:14:29;101524.09;;;15.10;100.00
37860;BME280;23698;52.014;5.190;2023-02-23T11:17:26;101533.63;;;17.77;100.00
37860;BME280;23698;52.014;5.190;2023-02-23T11:20:28;101533.47;;;15.90;100.00
37860;BME280;23698;52.014;5.190;2023-02-23T11:23:19;101542.81;;;17.26;100.00
37860;BME280;23698;52.014;5.190;2023-02-23T11:26:20;101527.44;;;15.13;100.00
37860;BME280;23698;52.014;5.190;2023-02-23T11:29:14;101526.19;;;15.08;100.00
37860;BME280;23698;52.014;5.190;2023-02-23T11:32:08;101532.09;;;14.35;100.00
37860;BME280;23698;52.014;5.190;2023-02-23T11:35:28;101534.19;;;14.33;100.00
37860;BME280;23698;52.014;5.190;2023-02-23T11:38:22;101536.53;;;14.43;100.00
37860;BME280;23698;52.014;5.190;2023-02-23T11:41:18;101538.16;;;14.59;100.00
37860;BME280;23698;52.014;5.190;2023-02-23T11:44:06;101539.28;;;13.87;100.00
37860;BME280;23698;52.014;5.190;2023-02-23T11:46:52;101537.00;;;13.90;100.00
37860;BME280;23698;52.014;5.190;2023-02-23T11:49:43;101529.56;;;13.34;100.00
37860;BME280;23698;52.014;5.190;2023-02-23T11:52:31;101533.63;;;14.16;100.00
37860;BME280;23698;52.014;5.190;2023-02-23T11:55:17;101519.53;;;14.41;100.00
37860;BME280;23698;52.014;5.190;2023-02-23T11:58:10;101521.66;;;13.83;100.00
37860;BME280;23698;52.014;5.190;2023-02-23T12:01:06;101517.09;;;13.25;100.00
37860;BME280;23698;52.014;5.190;2023-02-23T12:03:57;101526.16;;;13.11;100.00
37860;BME280;23698;52.014;5.190;2023-02-23T12:06:44;101511.91;;;13.30;100.00
37860;BME280;23698;52.014;5.190;2023-02-23T12:09:33;101523.00;;;13.50;100.00
37860;BME280;23698;52.014;5.190;2023-02-23T12:12:22;101528.25;;;12.94;100.00
37860;BME280;23698;52.014;5.190;2023-02-23T12:15:17;101522.44;;;12.82;100.00
37860;BME280;23698;52.014;5.190;2023-02-23T12:18:14;101513.63;;;12.95;100.00
37860;BME280;23698;52.014;5.190;2023-02-23T12:21:11;101510.84;;;15.07;100.00
37860;BME280;23698;52.014;5.190;2023-02-23T12:24:16;101530.88;;;13.60;100.00
37860;BME280;23698;52.014;5.190;2023-02-23T12:27:10;101517.78;;;11.78;100.00
37860;BME280;23698;52.014;5.190;2023-02-23T12:30:03;101529.06;;;14.24;100.00
37860;BME280;23698;52.014;5.190;2023-02-23T12:32:56;101548.63;;;15.99;100.00
37860;BME280;23698;52.014;5.190;2023-02-23T12:35:50;101550.31;;;16.20;100.00
37860;BME280;23698;52.014;5.190;2023-02-23T12:38:47;101550.84;;;16.69;100.00
37860;BME280;23698;52.014;5.190;2023-02-23T12:41:39;101549.81;;;17.53;100.00
37860;BME280;23698;52.014;5.190;2023-02-23T12:44:34;101551.91;;;18.77;100.00
37860;BME280;23698;52.014;5.190;2023-02-23T12:47:31;101536.53;;;14.71;100.00
37860;BME280;23698;52.014;5.190;2023-02-23T12:50:24;101536.63;;;14.98;100.00
37860;BME280;23698;52.014;5.190;2023-02-23T12:53:18;101548.41;;;14.29;100.00
37860;BME280;23698;52.014;5.190;2023-02-23T12:56:21;101542.63;;;13.82;100.00
37860;BME280;23698;52.014;5.190;2023-02-23T12:59:19;101537.47;;;12.78;100.00
37860;BME280;23698;52.014;5.190;2023-02-23T13:02:13;101530.63;;;13.55;100.00
37860;BME280;23698;52.014;5.190;2023-02-23T13:05:12;101526.44;;;13.01;100.00
37860;BME280;23698;52.014;5.190;2023-02-23T13:08:09;101523.81;;;13.44;100.00
37860;BME280;23698;52.014;5.190;2023-02-23T13:11:05;101532.16;;;13.64;100.00
37860;BME280;23698;52.014;5.190;2023-02-23T13:14:01;101524.97;;;13.20;100.00
37860;BME280;23698;52.014;5.190;2023-02-23T13:16:53;101518.78;;;12.90;100.00
37860;BME280;23698;52.014;5.190;2023-02-23T13:19:47;101516.78;;;13.78;100.00
37860;BME280;23698;52.014;5.190;2023-02-23T13:22:41;101521.59;;;13.54;100.00
37860;BME280;23698;52.014;5.190;2023-02-23T13:25:36;101518.53;;;14.14;100.00
37860;BME280;23698;52.014;5.190;2023-02-23T13:28:35;101521.41;;;14.41;100.00
37860;BME280;23698;52.014;5.190;2023-02-23T13:31:25;101528.81;;;14.47;100.00
37860;BME280;23698;52.014;5.190;2023-02-23T13:34:22;101522.75;;;14.93;100.00
37860;BME280;23698;52.014;5.190;2023-02-23T13:37:13;101525.78;;;14.63;100.00
37860;BME280;23698;52.014;5.190;2023-02-23T13:40:14;101519.44;;;13.93;100.00
37860;BME280;23698;52.014;5.190;2023-02-23T13:43:08;101524.25;;;13.97;100.00
37860;BME280;23698;52.014;5.190;2023-02-23T13:46:22;101533.50;;;13.96;100.00
37860;BME280;23698;52.014;5.190;2023-02-23T13:49:21;101535.69;;;13.58;100.00
37860;BME280;23698;52.014;5.190;2023-02-23T13:52:29;101525.66;;;13.44;100.00
37860;BME280;23698;52.014;5.190;2023-02-23T13:55:33;101531.31;;;13.64;100.00
37860;BME280;23698;52.014;5.190;2023-02-23T13:58:34;101533.84;;;13.44;100.00
37860;BME280;23698;52.014;5.190;2023-02-23T14:01:25;101531.88;;;13.01;100.00
37860;BME280;23698;52.014;5.190;2023-02-23T14:04:14;101535.06;;;13.63;100.00
37860;BME280;23698;52.014;5.190;2023-02-23T14:07:04;101538.34;;;13.51;100.00
37860;BME280;23698;52.014;5.190;2023-02-23T14:10:03;101534.44;;;13.39;100.00
37860;BME280;23698;52.014;5.190;2023-02-23T14:13:07;101540.13;;;13.66;100.00
37860;BME280;23698;52.014;5.190;2023-02-23T14:16:12;101536.91;;;13.55;100.00
37860;BME280;23698;52.014;5.190;2023-02-23T14:19:09;101539.88;;;12.88;100.00
37860;BME280;23698;52.014;5.190;2023-02-23T14:21:58;101537.44;;;12.93;100.00
37860;BME280;23698;52.014;5.190;2023-02-23T14:28:24;101542.88;;;13.29;100.00
37860;BME280;23698;52.014;5.190;2023-02-23T14:31:20;101547.56;;;12.99;100.00
37860;BME280;23698;52.014;5.190;2023-02-23T14:34:12;101542.41;;;13.04;100.00
37860;BME280;23698;52.014;5.190;2023-02-23T14:37:03;101539.34;;;12.62;100.00
37860;BME280;23698;52.014;5.190;2023-02-23T14:40:06;101537.88;;;11.92;100.00
37860;BME280;23698;52.014;5.190;2023-02-23T14:42:58;101541.53;;;11.53;100.00
37860;BME280;23698;52.014;5.190;2023-02-23T14:45:46;101532.69;;;11.59;100.00
37860;BME280;23698;52.014;5.190;2023-02-23T14:48:33;101533.63;;;12.13;100.00
37860;BME280;23698;52.014;5.190;2023-02-23T14:51:25;101524.41;;;12.14;100.00
37860;BME280;23698;52.014;5.190;2023-02-23T14:54:23;101522.28;;;12.39;100.00
37860;BME280;23698;52.014;5.190;2023-02-23T14:57:19;101520.09;;;12.79;100.00
37860;BME280;23698;52.014;5.190;2023-02-23T15:00:14;101519.94;;;12.36;100.00